sensor_id;sensor_type;location;lat;lon;timestamp;temperature;humidity
30186;DHT22;31152;49.190;8.122;2022-12-07T00:01:34;4.90;99.90
30186;DHT22;31152;49.190;8.122;2022-12-07T00:04:03;4.90;99.90
30186;DHT22;31152;49.190;8.122;2022-12-07T00:08:59;4.80;99.90
30186;DHT22;31152;49.190;8.122;2022-12-07T00:11:26;4.80;99.90
30186;DHT22;31152;49.190;8.122;2022-12-07T00:14:00;4.70;99.90
30186;DHT22;31152;49.190;8.122;2022-12-07T00:16:30;4.70;99.90
30186;DHT22;31152;49.190;8.122;2022-12-07T00:18:57;4.70;99.90
30186;DHT22;31152;49.190;8.122;2022-12-07T00:21:30;4.60;99.90
30186;DHT22;31152;49.190;8.122;2022-12-07T00:23:57;4.60;99.90
30186;DHT22;31152;49.190;8.122;2022-12-07T00:26:27;4.60;99.90
30186;DHT22;31152;49.190;8.122;2022-12-07T00:28:59;4.50;99.90
30186;DHT22;31152;49.190;8.122;2022-12-07T00:31:29;4.50;99.90
30186;DHT22;31152;49.190;8.122;2022-12-07T00:33:57;4.50;99.90
30186;DHT22;31152;49.190;8.122;2022-12-07T00:36:24;4.60;99.90
30186;DHT22;31152;49.190;8.122;2022-12-07T00:38:54;4.50;99.90
30186;DHT22;31152;49.190;8.122;2022-12-07T00:41:25;4.50;99.90
30186;DHT22;31152;49.190;8.122;2022-12-07T00:43:52;4.40;99.90
30186;DHT22;31152;49.190;8.122;2022-12-07T00:46:20;4.40;99.90
30186;DHT22;31152;49.190;8.122;2022-12-07T00:48:48;4.40;99.90
30186;DHT22;31152;49.190;8.122;2022-12-07T00:51:16;4.40;99.90
30186;DHT22;31152;49.190;8.122;2022-12-07T00:53:43;4.30;99.90
30186;DHT22;31152;49.190;8.122;2022-12-07T00:56:16;4.30;99.90
30186;DHT22;31152;49.190;8.122;2022-12-07T00:58:43;4.30;99.90
30186;DHT22;31152;49.190;8.122;2022-12-07T01:01:10;4.40;99.90
30186;DHT22;31152;49.190;8.122;2022-12-07T01:03:40;4.30;99.90
30186;DHT22;31152;49.190;8.122;2022-12-07T01:06:06;4.30;99.90
30186;DHT22;31152;49.190;8.122;2022-12-07T01:08:33;4.30;99.90
30186;DHT22;31152;49.190;8.122;2022-12-07T01:11:07;4.30;99.90
30186;DHT22;31152;49.190;8.122;2022-12-07T01:13:35;4.40;99.90
30186;DHT22;31152;49.190;8.122;2022-12-07T01:16:05;4.40;99.90
30186;DHT22;31152;49.190;8.122;2022-12-07T01:18:35;4.40;99.90
30186;DHT22;31152;49.190;8.122;2022-12-07T01:21:09;4.40;99.90
30186;DHT22;31152;49.190;8.122;2022-12-07T01:23:37;4.40;99.90
30186;DHT22;31152;49.190;8.122;2022-12-07T01:26:07;4.40;99.90
30186;DHT22;31152;49.190;8.122;2022-12-07T01:28:34;4.40;99.90
30186;DHT22;31152;49.190;8.122;2022-12-07T01:31:10;4.40;99.90
30186;DHT22;31152;49.190;8.122;2022-12-07T01:33:43;4.40;99.90
30186;DHT22;31152;49.190;8.122;2022-12-07T01:36:14;4.40;99.90
30186;DHT22;31152;49.190;8.122;2022-12-07T01:38:41;4.40;99.90
30186;DHT22;31152;49.190;8.122;2022-12-07T01:41:08;4.40;99.90
30186;DHT22;31152;49.190;8.122;2022-12-07T01:43:35;4.30;99.90
30186;DHT22;31152;49.190;8.122;2022-12-07T01:46:03;4.30;99.90
30186;DHT22;31152;49.190;8.122;2022-12-07T01:48:38;4.30;99.90
30186;DHT22;31152;49.190;8.122;2022-12-07T01:51:09;4.20;99.90
30186;DHT22;31152;49.190;8.122;2022-12-07T01:53:43;4.20;99.90
30186;DHT22;31152;49.190;8.122;2022-12-07T01:56:17;4.20;99.90
30186;DHT22;31152;49.190;8.122;2022-12-07T01:58:45;4.20;99.90
30186;DHT22;31152;49.190;8.122;2022-12-07T02:01:12;4.30;99.90
30186;DHT22;31152;49.190;8.122;2022-12-07T02:03:42;4.30;99.90
30186;DHT22;31152;49.190;8.122;2022-12-07T02:06:11;4.30;99.90
30186;DHT22;31152;49.190;8.122;2022-12-07T02:08:38;4.30;99.90
30186;DHT22;31152;49.190;8.122;2022-12-07T02:11:07;4.30;99.90
30186;DHT22;31152;49.190;8.122;2022-12-07T02:13:36;4.30;99.90
30186;DHT22;31152;49.190;8.122;2022-12-07T02:29:55;4.30;99.90
30186;DHT22;31152;49.190;8.122;2022-12-07T02:40:35;4.30;99.90
30186;DHT22;31152;49.190;8.122;2022-12-07T02:45:45;4.20;99.90
30186;DHT22;31152;49.190;8.122;2022-12-07T02:48:15;4.20;99.90
30186;DHT22;31152;49.190;8.122;2022-12-07T02:50:49;4.20;99.90
30186;DHT22;31152;49.190;8.122;2022-12-07T03:04:49;4.30;99.90
30186;DHT22;31152;49.190;8.122;2022-12-07T03:10:24;4.20;99.90
30186;DHT22;31152;49.190;8.122;2022-12-07T03:15:49;4.20;99.90
30186;DHT22;31152;49.190;8.122;2022-12-07T03:18:21;4.20;99.90
30186;DHT22;31152;49.190;8.122;2022-12-07T03:20:51;4.20;99.90
30186;DHT22;31152;49.190;8.122;2022-12-07T03:23:19;4.30;99.90
30186;DHT22;31152;49.190;8.122;2022-12-07T03:25:52;4.20;99.90
30186;DHT22;31152;49.190;8.122;2022-12-07T03:28:30;4.20;99.90
30186;DHT22;31152;49.190;8.122;2022-12-07T03:36:23;4.20;99.90
30186;DHT22;31152;49.190;8.122;2022-12-07T03:38:57;4.20;99.90
30186;DHT22;31152;49.190;8.122;2022-12-07T03:41:30;4.20;99.90
30186;DHT22;31152;49.190;8.122;2022-12-07T03:43:57;4.20;99.90
30186;DHT22;31152;49.190;8.122;2022-12-07T03:49:40;4.20;99.90
30186;DHT22;31152;49.190;8.122;2022-12-07T03:57:14;4.20;99.90
30186;DHT22;31152;49.190;8.122;2022-12-07T03:59:42;4.20;99.90
30186;DHT22;31152;49.190;8.122;2022-12-07T04:02:13;4.20;99.90
30186;DHT22;31152;49.190;8.122;2022-12-07T04:04:41;4.20;99.90
30186;DHT22;31152;49.190;8.122;2022-12-07T04:07:09;4.20;99.90
30186;DHT22;31152;49.190;8.122;2022-12-07T04:09:36;4.30;99.90
30186;DHT22;31152;49.190;8.122;2022-12-07T04:12:02;4.20;99.90
30186;DHT22;31152;49.190;8.122;2022-12-07T04:14:29;4.20;99.90
30186;DHT22;31152;49.190;8.122;2022-12-07T04:16:58;4.20;99.90
30186;DHT22;31152;49.190;8.122;2022-12-07T04:19:27;4.20;99.90
30186;DHT22;31152;49.190;8.122;2022-12-07T04:21:55;4.20;99.90
30186;DHT22;31152;49.190;8.122;2022-12-07T04:24:22;4.20;99.90
30186;DHT22;31152;49.190;8.122;2022-12-07T04:26:49;4.20;99.90
30186;DHT22;31152;49.190;8.122;2022-12-07T04:29:18;4.20;99.90
30186;DHT22;31152;49.190;8.122;2022-12-07T04:31:51;4.20;99.90
30186;DHT22;31152;49.190;8.122;2022-12-07T04:34:18;4.20;99.90
30186;DHT22;31152;49.190;8.122;2022-12-07T04:36:48;4.20;99.90
30186;DHT22;31152;49.190;8.122;2022-12-07T04:39:33;4.20;99.90
30186;DHT22;31152;49.190;8.122;2022-12-07T04:42:02;4.20;99.90
30186;DHT22;31152;49.190;8.122;2022-12-07T04:44:32;4.20;99.90
30186;DHT22;31152;49.190;8.122;2022-12-07T04:46:58;4.20;99.90
30186;DHT22;31152;49.190;8.122;2022-12-07T04:49:25;4.20;99.90
30186;DHT22;31152;49.190;8.122;2022-12-07T04:51:52;4.30;99.90
30186;DHT22;31152;49.190;8.122;2022-12-07T04:54:22;4.30;99.90
30186;DHT22;31152;49.190;8.122;2022-12-07T04:56:49;4.30;99.90
30186;DHT22;31152;49.190;8.122;2022-12-07T04:59:18;4.30;99.90
30186;DHT22;31152;49.190;8.122;2022-12-07T05:01:45;4.30;99.90
30186;DHT22;31152;49.190;8.122;2022-12-07T05:04:12;4.30;99.90
30186;DHT22;31152;49.190;8.122;2022-12-07T05:06:39;4.30;99.90
30186;DHT22;31152;49.190;8.122;2022-12-07T05:09:09;4.30;99.90
30186;DHT22;31152;49.190;8.122;2022-12-07T05:11:35;4.30;99.90
30186;DHT22;31152;49.190;8.122;2022-12-07T05:16:34;4.30;99.90
30186;DHT22;31152;49.190;8.122;2022-12-07T05:19:04;4.30;99.90
30186;DHT22;31152;49.190;8.122;2022-12-07T05:21:35;4.30;99.90
30186;DHT22;31152;49.190;8.122;2022-12-07T05:24:02;4.30;99.90
30186;DHT22;31152;49.190;8.122;2022-12-07T05:26:30;4.30;99.90
30186;DHT22;31152;49.190;8.122;2022-12-07T05:28:59;4.30;99.90
30186;DHT22;31152;49.190;8.122;2022-12-07T05:31:29;4.30;99.90
30186;DHT22;31152;49.190;8.122;2022-12-07T05:33:56;4.30;99.90
30186;DHT22;31152;49.190;8.122;2022-12-07T05:36:25;4.30;99.90
30186;DHT22;31152;49.190;8.122;2022-12-07T05:38:55;4.30;99.90
30186;DHT22;31152;49.190;8.122;2022-12-07T05:41:21;4.30;99.90
30186;DHT22;31152;49.190;8.122;2022-12-07T05:44:07;4.30;99.90
30186;DHT22;31152;49.190;8.122;2022-12-07T05:46:36;4.30;99.90
30186;DHT22;31152;49.190;8.122;2022-12-07T05:49:03;4.30;99.90
30186;DHT22;31152;49.190;8.122;2022-12-07T05:51:30;4.30;99.90
30186;DHT22;31152;49.190;8.122;2022-12-07T05:53:56;4.40;99.90
30186;DHT22;31152;49.190;8.122;2022-12-07T05:56:23;4.40;99.90
30186;DHT22;31152;49.190;8.122;2022-12-07T05:58:50;4.30;99.90
30186;DHT22;31152;49.190;8.122;2022-12-07T06:01:35;4.40;99.90
30186;DHT22;31152;49.190;8.122;2022-12-07T06:04:02;4.40;99.90
30186;DHT22;31152;49.190;8.122;2022-12-07T06:06:29;4.40;99.90
30186;DHT22;31152;49.190;8.122;2022-12-07T06:08:55;4.40;99.90
30186;DHT22;31152;49.190;8.122;2022-12-07T06:11:22;4.40;99.90
30186;DHT22;31152;49.190;8.122;2022-12-07T06:14:07;4.40;99.90
30186;DHT22;31152;49.190;8.122;2022-12-07T06:16:34;4.40;99.90
30186;DHT22;31152;49.190;8.122;2022-12-07T06:19:01;4.50;99.90
30186;DHT22;31152;49.190;8.122;2022-12-07T06:21:27;4.50;99.90
30186;DHT22;31152;49.190;8.122;2022-12-07T06:23:54;4.50;99.90
30186;DHT22;31152;49.190;8.122;2022-12-07T06:26:21;4.50;99.90
30186;DHT22;31152;49.190;8.122;2022-12-07T06:28:51;4.40;99.90
30186;DHT22;31152;49.190;8.122;2022-12-07T06:31:18;4.40;99.90
30186;DHT22;31152;49.190;8.122;2022-12-07T06:33:45;4.40;99.90
30186;DHT22;31152;49.190;8.122;2022-12-07T06:36:12;4.40;99.90
30186;DHT22;31152;49.190;8.122;2022-12-07T06:38:38;4.50;99.90
30186;DHT22;31152;49.190;8.122;2022-12-07T06:41:05;4.50;99.90
30186;DHT22;31152;49.190;8.122;2022-12-07T06:43:36;4.50;99.90
30186;DHT22;31152;49.190;8.122;2022-12-07T06:46:03;4.40;99.90
30186;DHT22;31152;49.190;8.122;2022-12-07T06:48:35;4.40;99.90
30186;DHT22;31152;49.190;8.122;2022-12-07T06:51:01;4.50;99.90
30186;DHT22;31152;49.190;8.122;2022-12-07T06:53:28;4.50;99.90
30186;DHT22;31152;49.190;8.122;2022-12-07T06:55:55;4.50;99.90
30186;DHT22;31152;49.190;8.122;2022-12-07T06:58:24;4.50;99.90
30186;DHT22;31152;49.190;8.122;2022-12-07T07:00:53;4.50;99.90
30186;DHT22;31152;49.190;8.122;2022-12-07T07:03:20;4.50;99.90
30186;DHT22;31152;49.190;8.122;2022-12-07T07:05:47;4.50;99.90
30186;DHT22;31152;49.190;8.122;2022-12-07T07:08:14;4.50;99.90
30186;DHT22;31152;49.190;8.122;2022-12-07T07:10:52;4.50;99.90
30186;DHT22;31152;49.190;8.122;2022-12-07T07:13:18;4.50;99.90
30186;DHT22;31152;49.190;8.122;2022-12-07T07:15:45;4.50;99.90
30186;DHT22;31152;49.190;8.122;2022-12-07T07:18:12;4.60;99.90
30186;DHT22;31152;49.190;8.122;2022-12-07T07:20:39;4.50;99.90
30186;DHT22;31152;49.190;8.122;2022-12-07T07:23:06;4.50;99.90
30186;DHT22;31152;49.190;8.122;2022-12-07T07:25:34;4.50;99.90
30186;DHT22;31152;49.190;8.122;2022-12-07T07:28:01;4.50;99.90
30186;DHT22;31152;49.190;8.122;2022-12-07T07:30:28;4.50;99.90
30186;DHT22;31152;49.190;8.122;2022-12-07T07:33:02;4.60;99.90
30186;DHT22;31152;49.190;8.122;2022-12-07T07:35:31;4.50;99.90
30186;DHT22;31152;49.190;8.122;2022-12-07T07:37:58;4.50;99.90
30186;DHT22;31152;49.190;8.122;2022-12-07T07:40:25;4.60;99.90
30186;DHT22;31152;49.190;8.122;2022-12-07T07:42:53;4.60;99.90
30186;DHT22;31152;49.190;8.122;2022-12-07T07:45:21;4.60;99.90
30186;DHT22;31152;49.190;8.122;2022-12-07T07:47:49;4.50;99.90
30186;DHT22;31152;49.190;8.122;2022-12-07T07:50:17;4.50;99.90
30186;DHT22;31152;49.190;8.122;2022-12-07T07:52:44;4.50;99.90
30186;DHT22;31152;49.190;8.122;2022-12-07T07:55:13;4.40;99.90
30186;DHT22;31152;49.190;8.122;2022-12-07T07:57:40;4.40;99.90
30186;DHT22;31152;49.190;8.122;2022-12-07T08:00:13;4.40;99.90
30186;DHT22;31152;49.190;8.122;2022-12-07T08:02:42;4.40;99.90
30186;DHT22;31152;49.190;8.122;2022-12-07T08:05:13;4.40;99.90
30186;DHT22;31152;49.190;8.122;2022-12-07T08:07:39;4.40;99.90
30186;DHT22;31152;49.190;8.122;2022-12-07T08:10:07;4.40;99.90
30186;DHT22;31152;49.190;8.122;2022-12-07T08:12:38;4.40;99.90
30186;DHT22;31152;49.190;8.122;2022-12-07T08:15:29;4.50;99.90
30186;DHT22;31152;49.190;8.122;2022-12-07T08:17:56;4.50;99.90
30186;DHT22;31152;49.190;8.122;2022-12-07T08:20:23;4.50;99.90
30186;DHT22;31152;49.190;8.122;2022-12-07T08:22:50;4.50;99.90
30186;DHT22;31152;49.190;8.122;2022-12-07T08:25:17;4.50;99.90
30186;DHT22;31152;49.190;8.122;2022-12-07T08:27:46;4.50;99.90
30186;DHT22;31152;49.190;8.122;2022-12-07T08:30:13;4.50;99.90
30186;DHT22;31152;49.190;8.122;2022-12-07T08:32:47;4.50;99.90
30186;DHT22;31152;49.190;8.122;2022-12-07T08:35:14;4.50;99.90
30186;DHT22;31152;49.190;8.122;2022-12-07T08:37:43;4.50;99.90
30186;DHT22;31152;49.190;8.122;2022-12-07T08:40:13;4.60;99.90
30186;DHT22;31152;49.190;8.122;2022-12-07T08:42:49;4.60;99.90
30186;DHT22;31152;49.190;8.122;2022-12-07T08:45:19;4.60;99.90
30186;DHT22;31152;49.190;8.122;2022-12-07T08:48:01;4.70;99.90
30186;DHT22;31152;49.190;8.122;2022-12-07T08:50:29;4.70;99.90
30186;DHT22;31152;49.190;8.122;2022-12-07T08:52:57;4.70;99.90
30186;DHT22;31152;49.190;8.122;2022-12-07T08:55:24;4.70;99.90
30186;DHT22;31152;49.190;8.122;2022-12-07T08:57:54;4.80;99.90
30186;DHT22;31152;49.190;8.122;2022-12-07T09:00:21;4.80;99.90
30186;DHT22;31152;49.190;8.122;2022-12-07T09:02:48;4.90;99.90
30186;DHT22;31152;49.190;8.122;2022-12-07T09:05:15;5.00;99.90
30186;DHT22;31152;49.190;8.122;2022-12-07T09:07:45;5.00;99.90
30186;DHT22;31152;49.190;8.122;2022-12-07T09:10:12;5.00;99.90
30186;DHT22;31152;49.190;8.122;2022-12-07T09:12:39;5.00;99.90
30186;DHT22;31152;49.190;8.122;2022-12-07T09:15:08;5.00;99.90
30186;DHT22;31152;49.190;8.122;2022-12-07T09:17:35;5.00;99.90
30186;DHT22;31152;49.190;8.122;2022-12-07T09:20:04;5.00;99.90
30186;DHT22;31152;49.190;8.122;2022-12-07T09:22:32;5.00;99.90
30186;DHT22;31152;49.190;8.122;2022-12-07T09:25:01;5.00;99.90
30186;DHT22;31152;49.190;8.122;2022-12-07T09:27:29;5.10;99.90
30186;DHT22;31152;49.190;8.122;2022-12-07T09:29:56;5.10;99.90
30186;DHT22;31152;49.190;8.122;2022-12-07T09:32:22;5.10;99.90
30186;DHT22;31152;49.190;8.122;2022-12-07T09:34:49;5.00;99.90
30186;DHT22;31152;49.190;8.122;2022-12-07T09:37:16;5.00;99.90
30186;DHT22;31152;49.190;8.122;2022-12-07T09:39:43;5.00;99.90
30186;DHT22;31152;49.190;8.122;2022-12-07T09:42:38;5.00;99.90
30186;DHT22;31152;49.190;8.122;2022-12-07T09:45:21;5.00;99.90
30186;DHT22;31152;49.190;8.122;2022-12-07T09:47:49;5.00;99.90
30186;DHT22;31152;49.190;8.122;2022-12-07T09:50:27;5.00;99.90
30186;DHT22;31152;49.190;8.122;2022-12-07T09:53:04;5.00;99.90
30186;DHT22;31152;49.190;8.122;2022-12-07T09:55:33;5.00;99.90
30186;DHT22;31152;49.190;8.122;2022-12-07T09:58:00;5.00;99.90
30186;DHT22;31152;49.190;8.122;2022-12-07T10:00:27;5.00;99.90
30186;DHT22;31152;49.190;8.122;2022-12-07T10:03:02;5.00;99.90
30186;DHT22;31152;49.190;8.122;2022-12-07T10:05:41;5.10;99.90
30186;DHT22;31152;49.190;8.122;2022-12-07T10:08:11;5.10;99.90
30186;DHT22;31152;49.190;8.122;2022-12-07T10:10:38;5.10;99.90
30186;DHT22;31152;49.190;8.122;2022-12-07T10:13:15;5.10;99.90
30186;DHT22;31152;49.190;8.122;2022-12-07T10:15:56;5.00;99.90
30186;DHT22;31152;49.190;8.122;2022-12-07T10:18:40;5.10;99.90
30186;DHT22;31152;49.190;8.122;2022-12-07T10:21:19;5.10;99.90
30186;DHT22;31152;49.190;8.122;2022-12-07T10:26:51;5.70;99.90
30186;DHT22;31152;49.190;8.122;2022-12-07T10:29:38;5.90;99.90
30186;DHT22;31152;49.190;8.122;2022-12-07T10:32:43;6.00;99.90
30186;DHT22;31152;49.190;8.122;2022-12-07T10:35:26;5.90;99.90
30186;DHT22;31152;49.190;8.122;2022-12-07T10:37:57;5.80;99.90
30186;DHT22;31152;49.190;8.122;2022-12-07T10:40:36;5.70;99.90
30186;DHT22;31152;49.190;8.122;2022-12-07T10:46:09;5.70;99.90
30186;DHT22;31152;49.190;8.122;2022-12-07T10:57:17;5.90;99.90
30186;DHT22;31152;49.190;8.122;2022-12-07T10:59:51;5.90;99.90
30186;DHT22;31152;49.190;8.122;2022-12-07T11:11:13;6.00;99.90
30186;DHT22;31152;49.190;8.122;2022-12-07T11:13:48;6.10;99.90
30186;DHT22;31152;49.190;8.122;2022-12-07T11:22:14;6.80;99.90
30186;DHT22;31152;49.190;8.122;2022-12-07T11:25:17;7.00;99.90
30186;DHT22;31152;49.190;8.122;2022-12-07T11:33:15;6.80;99.90
30186;DHT22;31152;49.190;8.122;2022-12-07T11:38:44;6.80;99.90
30186;DHT22;31152;49.190;8.122;2022-12-07T11:41:12;6.80;99.90
30186;DHT22;31152;49.190;8.122;2022-12-07T11:46:30;7.70;99.90
30186;DHT22;31152;49.190;8.122;2022-12-07T11:49:09;7.70;99.90
30186;DHT22;31152;49.190;8.122;2022-12-07T11:51:39;7.50;99.90
30186;DHT22;31152;49.190;8.122;2022-12-07T11:54:38;7.40;99.90
30186;DHT22;31152;49.190;8.122;2022-12-07T11:57:22;7.20;99.90
30186;DHT22;31152;49.190;8.122;2022-12-07T11:59:53;6.90;99.90
30186;DHT22;31152;49.190;8.122;2022-12-07T12:02:59;6.70;99.90
30186;DHT22;31152;49.190;8.122;2022-12-07T12:05:28;6.60;99.90
30186;DHT22;31152;49.190;8.122;2022-12-07T12:09:12;6.50;99.90
30186;DHT22;31152;49.190;8.122;2022-12-07T12:17:27;6.20;99.90
30186;DHT22;31152;49.190;8.122;2022-12-07T12:20:15;6.10;99.90
30186;DHT22;31152;49.190;8.122;2022-12-07T12:22:58;6.10;99.90
30186;DHT22;31152;49.190;8.122;2022-12-07T12:25:39;6.10;99.90
30186;DHT22;31152;49.190;8.122;2022-12-07T12:33:55;6.00;99.90
30186;DHT22;31152;49.190;8.122;2022-12-07T12:46:50;6.00;99.90
30186;DHT22;31152;49.190;8.122;2022-12-07T12:51:58;6.00;99.90
30186;DHT22;31152;49.190;8.122;2022-12-07T12:54:33;5.90;99.90
30186;DHT22;31152;49.190;8.122;2022-12-07T13:18:37;6.10;99.90
30186;DHT22;31152;49.190;8.122;2022-12-07T13:23:54;6.10;99.90
30186;DHT22;31152;49.190;8.122;2022-12-07T13:26:27;6.20;99.90
30186;DHT22;31152;49.190;8.122;2022-12-07T13:31:45;6.10;99.90
30186;DHT22;31152;49.190;8.122;2022-12-07T13:34:38;6.10;99.90
30186;DHT22;31152;49.190;8.122;2022-12-07T13:37:24;6.10;99.90
30186;DHT22;31152;49.190;8.122;2022-12-07T13:39:58;6.10;99.90
30186;DHT22;31152;49.190;8.122;2022-12-07T13:42:33;6.00;99.90
30186;DHT22;31152;49.190;8.122;2022-12-07T13:45:22;6.00;99.90
30186;DHT22;31152;49.190;8.122;2022-12-07T13:50:56;5.90;99.90
30186;DHT22;31152;49.190;8.122;2022-12-07T13:53:24;5.90;99.90
30186;DHT22;31152;49.190;8.122;2022-12-07T13:55:52;5.90;99.90
30186;DHT22;31152;49.190;8.122;2022-12-07T13:58:21;5.90;99.90
30186;DHT22;31152;49.190;8.122;2022-12-07T14:00:48;5.90;99.90
30186;DHT22;31152;49.190;8.122;2022-12-07T14:05:45;5.80;99.90
30186;DHT22;31152;49.190;8.122;2022-12-07T14:10:55;5.80;99.90
30186;DHT22;31152;49.190;8.122;2022-12-07T14:16:28;5.80;99.90
30186;DHT22;31152;49.190;8.122;2022-12-07T14:19:00;5.80;99.90
30186;DHT22;31152;49.190;8.122;2022-12-07T14:21:29;5.80;99.90
30186;DHT22;31152;49.190;8.122;2022-12-07T14:24:22;5.80;99.90
30186;DHT22;31152;49.190;8.122;2022-12-07T14:26:51;5.80;99.90
30186;DHT22;31152;49.190;8.122;2022-12-07T14:29:30;5.70;99.90
30186;DHT22;31152;49.190;8.122;2022-12-07T14:32:04;5.90;99.90
30186;DHT22;31152;49.190;8.122;2022-12-07T14:34:43;6.00;99.90
30186;DHT22;31152;49.190;8.122;2022-12-07T14:37:18;6.10;99.90
30186;DHT22;31152;49.190;8.122;2022-12-07T14:39:47;6.00;99.90
30186;DHT22;31152;49.190;8.122;2022-12-07T14:42:14;6.00;99.90
30186;DHT22;31152;49.190;8.122;2022-12-07T14:44:43;5.90;99.90
30186;DHT22;31152;49.190;8.122;2022-12-07T14:47:12;5.90;99.90
30186;DHT22;31152;49.190;8.122;2022-12-07T14:49:59;5.90;99.90
30186;DHT22;31152;49.190;8.122;2022-12-07T14:52:31;5.90;99.90
30186;DHT22;31152;49.190;8.122;2022-12-07T14:55:29;5.80;99.90
30186;DHT22;31152;49.190;8.122;2022-12-07T14:57:57;5.80;99.90
30186;DHT22;31152;49.190;8.122;2022-12-07T15:00:25;5.70;99.90
30186;DHT22;31152;49.190;8.122;2022-12-07T15:02:53;5.70;99.90
30186;DHT22;31152;49.190;8.122;2022-12-07T15:05:20;5.70;99.90
30186;DHT22;31152;49.190;8.122;2022-12-07T15:07:48;5.60;99.90
30186;DHT22;31152;49.190;8.122;2022-12-07T15:10:18;5.60;99.90
30186;DHT22;31152;49.190;8.122;2022-12-07T15:12:52;5.50;99.90
30186;DHT22;31152;49.190;8.122;2022-12-07T15:15:19;5.40;99.90
30186;DHT22;31152;49.190;8.122;2022-12-07T15:17:46;5.40;99.90
30186;DHT22;31152;49.190;8.122;2022-12-07T15:20:14;5.30;99.90
30186;DHT22;31152;49.190;8.122;2022-12-07T15:22:44;5.30;99.90
30186;DHT22;31152;49.190;8.122;2022-12-07T15:25:14;5.20;99.90
30186;DHT22;31152;49.190;8.122;2022-12-07T15:27:41;5.10;99.90
30186;DHT22;31152;49.190;8.122;2022-12-07T15:30:08;5.10;99.90
30186;DHT22;31152;49.190;8.122;2022-12-07T15:32:34;5.10;99.90
30186;DHT22;31152;49.190;8.122;2022-12-07T15:35:01;5.00;99.90
30186;DHT22;31152;49.190;8.122;2022-12-07T15:37:28;5.00;99.90
30186;DHT22;31152;49.190;8.122;2022-12-07T15:39:55;5.00;99.90
30186;DHT22;31152;49.190;8.122;2022-12-07T15:42:22;4.90;99.90
30186;DHT22;31152;49.190;8.122;2022-12-07T15:44:49;4.90;99.90
30186;DHT22;31152;49.190;8.122;2022-12-07T15:47:35;4.90;99.90
30186;DHT22;31152;49.190;8.122;2022-12-07T15:50:23;4.80;99.90
30186;DHT22;31152;49.190;8.122;2022-12-07T15:52:50;4.80;99.90
30186;DHT22;31152;49.190;8.122;2022-12-07T15:55:25;4.80;99.90
30186;DHT22;31152;49.190;8.122;2022-12-07T15:57:57;4.70;99.90
30186;DHT22;31152;49.190;8.122;2022-12-07T16:00:25;4.70;99.90
30186;DHT22;31152;49.190;8.122;2022-12-07T16:02:54;4.70;99.90
30186;DHT22;31152;49.190;8.122;2022-12-07T16:05:25;4.60;99.90
30186;DHT22;31152;49.190;8.122;2022-12-07T16:07:52;4.60;99.90
30186;DHT22;31152;49.190;8.122;2022-12-07T16:10:21;4.50;99.90
30186;DHT22;31152;49.190;8.122;2022-12-07T16:12:48;4.50;99.90
30186;DHT22;31152;49.190;8.122;2022-12-07T16:15:14;4.50;99.90
30186;DHT22;31152;49.190;8.122;2022-12-07T16:17:48;4.40;99.90
30186;DHT22;31152;49.190;8.122;2022-12-07T16:20:15;4.50;99.90
30186;DHT22;31152;49.190;8.122;2022-12-07T16:22:41;4.40;99.90
30186;DHT22;31152;49.190;8.122;2022-12-07T16:25:08;4.40;99.90
30186;DHT22;31152;49.190;8.122;2022-12-07T16:27:35;4.40;99.90
30186;DHT22;31152;49.190;8.122;2022-12-07T16:30:05;4.40;99.90
30186;DHT22;31152;49.190;8.122;2022-12-07T16:32:31;4.40;99.90
30186;DHT22;31152;49.190;8.122;2022-12-07T16:34:58;4.40;99.90
30186;DHT22;31152;49.190;8.122;2022-12-07T16:37:25;4.40;99.90
30186;DHT22;31152;49.190;8.122;2022-12-07T16:39:52;4.30;99.90
30186;DHT22;31152;49.190;8.122;2022-12-07T16:42:19;4.30;99.90
30186;DHT22;31152;49.190;8.122;2022-12-07T16:44:45;4.30;99.90
30186;DHT22;31152;49.190;8.122;2022-12-07T16:47:13;4.30;99.90
30186;DHT22;31152;49.190;8.122;2022-12-07T16:49:40;4.20;99.90
30186;DHT22;31152;49.190;8.122;2022-12-07T16:52:11;4.20;99.90
30186;DHT22;31152;49.190;8.122;2022-12-07T16:54:49;4.20;99.90
30186;DHT22;31152;49.190;8.122;2022-12-07T16:57:17;4.10;99.90
30186;DHT22;31152;49.190;8.122;2022-12-07T16:59:49;4.10;99.90
30186;DHT22;31152;49.190;8.122;2022-12-07T17:02:16;4.10;99.90
30186;DHT22;31152;49.190;8.122;2022-12-07T17:04:42;4.10;99.90
30186;DHT22;31152;49.190;8.122;2022-12-07T17:07:11;4.00;99.90
30186;DHT22;31152;49.190;8.122;2022-12-07T17:09:38;4.00;99.90
30186;DHT22;31152;49.190;8.122;2022-12-07T17:12:05;4.00;99.90
30186;DHT22;31152;49.190;8.122;2022-12-07T17:14:33;4.00;99.90
30186;DHT22;31152;49.190;8.122;2022-12-07T17:17:18;4.00;99.90
30186;DHT22;31152;49.190;8.122;2022-12-07T17:19:47;4.00;99.90
30186;DHT22;31152;49.190;8.122;2022-12-07T17:22:14;3.90;99.90
30186;DHT22;31152;49.190;8.122;2022-12-07T17:24:41;3.80;99.90
30186;DHT22;31152;49.190;8.122;2022-12-07T17:27:07;3.80;99.90
30186;DHT22;31152;49.190;8.122;2022-12-07T17:29:37;3.80;99.90
30186;DHT22;31152;49.190;8.122;2022-12-07T17:32:06;3.80;99.90
30186;DHT22;31152;49.190;8.122;2022-12-07T17:34:33;3.70;99.90
30186;DHT22;31152;49.190;8.122;2022-12-07T17:37:02;3.70;99.90
30186;DHT22;31152;49.190;8.122;2022-12-07T17:39:28;3.70;99.90
30186;DHT22;31152;49.190;8.122;2022-12-07T17:41:55;3.60;99.90
30186;DHT22;31152;49.190;8.122;2022-12-07T17:44:40;3.60;99.90
30186;DHT22;31152;49.190;8.122;2022-12-07T17:47:10;3.60;99.90
30186;DHT22;31152;49.190;8.122;2022-12-07T17:49:36;3.50;99.90
30186;DHT22;31152;49.190;8.122;2022-12-07T17:52:03;3.50;99.90
30186;DHT22;31152;49.190;8.122;2022-12-07T17:54:48;3.50;99.90
30186;DHT22;31152;49.190;8.122;2022-12-07T17:57:15;3.50;99.90
30186;DHT22;31152;49.190;8.122;2022-12-07T17:59:42;3.50;99.90
30186;DHT22;31152;49.190;8.122;2022-12-07T18:02:11;3.50;99.90
30186;DHT22;31152;49.190;8.122;2022-12-07T18:04:38;3.50;99.90
30186;DHT22;31152;49.190;8.122;2022-12-07T18:07:07;3.40;99.90
30186;DHT22;31152;49.190;8.122;2022-12-07T18:09:35;3.40;99.90
30186;DHT22;31152;49.190;8.122;2022-12-07T18:12:04;3.40;99.90
30186;DHT22;31152;49.190;8.122;2022-12-07T18:14:36;3.40;99.90
30186;DHT22;31152;49.190;8.122;2022-12-07T18:17:05;3.40;99.90
30186;DHT22;31152;49.190;8.122;2022-12-07T18:19:40;3.40;99.90
30186;DHT22;31152;49.190;8.122;2022-12-07T18:22:09;3.30;99.90
30186;DHT22;31152;49.190;8.122;2022-12-07T18:24:36;3.30;99.90
30186;DHT22;31152;49.190;8.122;2022-12-07T18:27:06;3.40;99.90
30186;DHT22;31152;49.190;8.122;2022-12-07T18:29:33;3.30;99.90
30186;DHT22;31152;49.190;8.122;2022-12-07T18:32:03;3.30;99.90
30186;DHT22;31152;49.190;8.122;2022-12-07T18:34:31;3.30;99.90
30186;DHT22;31152;49.190;8.122;2022-12-07T18:36:58;3.40;99.90
30186;DHT22;31152;49.190;8.122;2022-12-07T18:39:25;3.40;99.90
30186;DHT22;31152;49.190;8.122;2022-12-07T18:41:59;3.60;99.90
30186;DHT22;31152;49.190;8.122;2022-12-07T18:44:25;3.70;99.90
30186;DHT22;31152;49.190;8.122;2022-12-07T18:46:54;3.80;99.90
30186;DHT22;31152;49.190;8.122;2022-12-07T18:49:21;3.80;99.90
30186;DHT22;31152;49.190;8.122;2022-12-07T18:51:48;3.90;99.90